createdAt,value
2018-12-06T00:01:49.132Z,93.20
2018-12-06T00:04:16.639Z,116.97
2018-12-06T00:06:44.233Z,119.40
2018-12-06T00:09:11.750Z,130.47
2018-12-06T00:11:39.609Z,128.00
2018-12-06T00:14:07.466Z,119.37
2018-12-06T00:16:34.974Z,119.57
2018-12-06T00:19:07.268Z,116.40
2018-12-06T00:21:35.450Z,113.33
2018-12-06T00:24:02.973Z,112.30
2018-12-06T00:26:30.478Z,113.17
2018-12-06T00:28:58.291Z,110.93
2018-12-06T00:31:25.798Z,110.53
2018-12-06T00:33:53.309Z,112.97
2018-12-06T00:36:21.410Z,108.30
2018-12-06T00:38:48.922Z,118.60
2018-12-06T00:41:16.469Z,131.20
2018-12-06T00:43:43.972Z,122.97
2018-12-06T00:46:11.958Z,128.60
2018-12-06T00:48:40.163Z,124.87
2018-12-06T00:51:07.658Z,127.27
2018-12-06T00:53:35.182Z,102.27
2018-12-06T00:56:02.710Z,127.40
2018-12-06T00:58:30.240Z,131.43
2018-12-06T01:00:57.766Z,117.57
2018-12-06T01:03:25.257Z,114.10
2018-12-06T01:05:52.773Z,106.50
2018-12-06T01:08:20.292Z,107.13
2018-12-06T01:10:47.794Z,106.30
2018-12-06T01:13:15.315Z,100.87
2018-12-06T01:15:43.446Z,109.30
2018-12-06T01:18:10.961Z,109.83
2018-12-06T01:20:38.463Z,103.73
2018-12-06T01:23:06.150Z,102.60
2018-12-06T01:25:33.731Z,94.27
2018-12-06T01:28:01.238Z,98.07
2018-12-06T01:30:28.730Z,90.03
2018-12-06T01:32:56.329Z,88.37
2018-12-06T01:35:23.821Z,103.03
2018-12-06T01:37:51.316Z,119.93
2018-12-06T01:40:19.592Z,110.63
2018-12-06T01:42:47.099Z,99.37
2018-12-06T01:45:14.609Z,101.03
2018-12-06T01:47:42.306Z,99.13
2018-12-06T01:50:09.802Z,100.40
2018-12-06T01:52:37.294Z,96.83
2018-12-06T01:55:04.967Z,94.90
2018-12-06T01:57:32.470Z,94.17
2018-12-06T01:59:59.973Z,94.73
2018-12-06T02:02:27.486Z,93.17
2018-12-06T02:04:54.993Z,91.00
2018-12-06T02:07:22.484Z,88.73
2018-12-06T02:09:49.994Z,89.93
2018-12-06T02:12:17.483Z,92.93
2018-12-06T02:14:45.007Z,89.90
2018-12-06T02:17:12.519Z,89.13
2018-12-06T02:19:40.013Z,84.77
2018-12-06T02:22:07.531Z,88.53
2018-12-06T02:24:35.023Z,82.37
2018-12-06T02:27:02.530Z,83.83
2018-12-06T02:29:32.001Z,83.20
2018-12-06T02:31:59.602Z,79.93
2018-12-06T02:34:27.099Z,82.73
2018-12-06T02:36:54.704Z,81.20
2018-12-06T02:39:22.204Z,82.03
2018-12-06T02:41:50.303Z,82.47
2018-12-06T02:44:17.875Z,77.30
2018-12-06T02:46:45.390Z,77.60
2018-12-06T02:49:12.896Z,74.33
2018-12-06T02:51:40.415Z,76.97
2018-12-06T02:54:08.684Z,73.70
2018-12-06T02:56:36.211Z,74.47
2018-12-06T02:59:03.716Z,72.67
2018-12-06T03:01:31.210Z,72.87
2018-12-06T03:03:58.778Z,72.73
2018-12-06T03:06:26.287Z,72.93
2018-12-06T03:08:53.793Z,72.50
2018-12-06T03:11:21.316Z,75.30
2018-12-06T03:13:48.810Z,71.07
2018-12-06T03:16:16.875Z,71.80
2018-12-06T03:18:44.384Z,68.20
2018-12-06T03:21:11.934Z,69.90
2018-12-06T03:23:39.457Z,66.30
2018-12-06T03:26:06.951Z,66.03
2018-12-06T03:28:35.286Z,65.87
2018-12-06T03:31:03.130Z,64.90
2018-12-06T03:33:30.622Z,65.50
2018-12-06T03:35:58.181Z,63.97
2018-12-06T03:38:25.683Z,62.23
2018-12-06T03:40:53.186Z,63.33
2018-12-06T03:43:20.678Z,61.60
2018-12-06T03:45:48.183Z,61.63
2018-12-06T03:48:15.694Z,62.43
2018-12-06T03:50:43.664Z,60.47
2018-12-06T03:53:11.165Z,60.07
2018-12-06T03:55:38.655Z,57.97
2018-12-06T03:58:06.231Z,59.30
2018-12-06T04:00:33.724Z,57.13
2018-12-06T04:03:01.261Z,58.07
2018-12-06T04:05:29.560Z,56.93
2018-12-06T04:07:57.063Z,55.20
2018-12-06T04:10:24.562Z,55.57
2018-12-06T04:12:52.094Z,55.97
2018-12-06T04:15:19.584Z,55.17
2018-12-06T04:17:47.825Z,55.30
2018-12-06T04:20:16.085Z,55.07
2018-12-06T04:22:43.627Z,53.70
2018-12-06T04:25:11.121Z,54.17
2018-12-06T04:27:38.636Z,53.20
2018-12-06T04:30:06.301Z,51.57
2018-12-06T04:32:33.814Z,52.40
2018-12-06T04:35:01.369Z,51.00
2018-12-06T04:37:29.173Z,51.63
2018-12-06T04:39:56.679Z,48.63
2018-12-06T04:42:24.183Z,49.40
2018-12-06T04:44:51.678Z,49.53
2018-12-06T04:47:19.173Z,50.60
2018-12-06T04:49:47.041Z,49.00
2018-12-06T04:52:15.262Z,49.60
2018-12-06T04:54:42.834Z,47.73
2018-12-06T04:57:10.338Z,47.80
2018-12-06T04:59:37.841Z,47.33
2018-12-06T05:02:05.347Z,47.93
2018-12-06T05:04:32.848Z,46.67
2018-12-06T05:07:00.358Z,48.07
2018-12-06T05:09:27.879Z,46.37
2018-12-06T05:11:55.366Z,46.57
2018-12-06T05:14:25.035Z,45.23
2018-12-06T05:16:52.538Z,44.87
2018-12-06T05:19:20.035Z,44.93
2018-12-06T05:21:47.545Z,44.27
2018-12-06T05:24:15.264Z,44.70
2018-12-06T05:26:42.894Z,44.03
2018-12-06T05:29:10.961Z,43.67
2018-12-06T05:31:38.833Z,43.93
2018-12-06T05:34:06.317Z,43.13
2018-12-06T05:36:34.595Z,43.77
2018-12-06T05:39:02.117Z,42.43
2018-12-06T05:41:30.390Z,42.33
2018-12-06T05:43:57.893Z,42.47
2018-12-06T05:46:25.436Z,41.00
2018-12-06T05:48:53.329Z,38.77
2018-12-06T05:51:21.374Z,41.70
2018-12-06T05:53:48.874Z,39.63
2018-12-06T05:56:16.456Z,40.87
2018-12-06T05:58:43.973Z,38.77
2018-12-06T06:01:11.480Z,37.73
2018-12-06T06:03:39.045Z,38.13
2018-12-06T06:06:06.645Z,37.73
2018-12-06T06:08:34.211Z,38.43
2018-12-06T06:11:01.711Z,37.80
2018-12-06T06:13:29.308Z,36.77
2018-12-06T06:15:56.812Z,38.67
2018-12-06T06:18:24.284Z,38.47
2018-12-06T06:20:51.794Z,36.73
2018-12-06T06:23:19.854Z,36.00
2018-12-06T06:25:47.490Z,36.07
2018-12-06T06:28:14.979Z,35.57
2018-12-06T06:30:42.567Z,36.00
2018-12-06T06:33:10.234Z,34.80
2018-12-06T06:35:37.772Z,34.73
2018-12-06T06:38:05.281Z,34.87
2018-12-06T06:40:32.771Z,33.77
2018-12-06T06:43:00.548Z,34.17
2018-12-06T06:45:28.066Z,33.23
2018-12-06T06:47:55.580Z,33.43
2018-12-06T06:50:23.062Z,32.77
2018-12-06T06:52:50.683Z,33.50
2018-12-06T06:55:18.215Z,31.63
2018-12-06T06:57:45.723Z,31.70
2018-12-06T07:00:13.225Z,30.67
2018-12-06T07:02:40.719Z,30.93
2018-12-06T07:05:08.221Z,31.77
2018-12-06T07:07:35.721Z,32.50
2018-12-06T07:10:05.061Z,32.07
2018-12-06T07:12:32.552Z,29.60
2018-12-06T07:15:00.033Z,29.20
2018-12-06T07:17:27.562Z,29.53
2018-12-06T07:19:55.049Z,30.10
2018-12-06T07:22:22.542Z,29.30
2018-12-06T07:24:50.067Z,29.53
2018-12-06T07:27:17.552Z,29.10
2018-12-06T07:29:45.822Z,28.27
2018-12-06T07:32:13.325Z,27.97
2018-12-06T07:34:40.821Z,28.83
2018-12-06T07:37:08.361Z,27.60
2018-12-06T07:39:36.261Z,27.80
2018-12-06T07:42:03.753Z,26.90
2018-12-06T07:44:31.262Z,26.50
2018-12-06T07:46:58.840Z,26.67
2018-12-06T07:49:27.086Z,26.23
2018-12-06T07:51:54.566Z,25.67
2018-12-06T07:54:22.462Z,25.50
2018-12-06T07:56:49.960Z,25.70
2018-12-06T07:59:17.477Z,26.07
2018-12-06T08:01:44.978Z,25.10
2018-12-06T08:04:12.494Z,24.97
2018-12-06T08:06:39.997Z,24.13
2018-12-06T08:09:07.495Z,24.10
2018-12-06T08:11:34.994Z,25.40
2018-12-06T08:14:02.513Z,90.73
2018-12-06T08:16:30.029Z,87.13
2018-12-06T08:18:57.533Z,83.13
2018-12-06T08:21:25.026Z,80.40
2018-12-06T08:23:52.627Z,81.90
2018-12-06T08:26:20.139Z,75.80
2018-12-06T08:28:47.671Z,75.63
2018-12-06T08:31:15.827Z,74.40
2018-12-06T08:33:43.590Z,70.23
2018-12-06T08:36:11.110Z,105.57
2018-12-06T08:38:38.606Z,98.63
2018-12-06T08:41:06.125Z,104.17
2018-12-06T08:43:33.626Z,103.57
2018-12-06T08:46:01.147Z,93.63
2018-12-06T08:48:28.647Z,87.13
2018-12-06T08:50:56.154Z,87.33
2018-12-06T08:53:23.826Z,82.53
2018-12-06T08:55:51.334Z,93.07
2018-12-06T08:58:18.842Z,95.77
2018-12-06T09:00:46.351Z,90.03
2018-12-06T09:03:13.858Z,88.83
2018-12-06T09:05:41.367Z,87.40
2018-12-06T09:08:08.866Z,83.50
2018-12-06T09:10:36.392Z,82.60
2018-12-06T09:13:04.250Z,102.90
2018-12-06T09:15:31.770Z,100.00
2018-12-06T09:17:59.277Z,106.17
2018-12-06T09:20:26.791Z,113.83
2018-12-06T09:22:54.300Z,104.90
2018-12-06T09:25:21.809Z,101.60
2018-12-06T09:27:49.780Z,113.17
2018-12-06T09:30:17.270Z,108.83
2018-12-06T09:32:44.793Z,106.83
2018-12-06T09:35:12.313Z,110.20
2018-12-06T09:37:39.809Z,115.90
2018-12-06T09:40:07.312Z,131.77
2018-12-06T09:42:34.841Z,129.37
2018-12-06T09:45:02.425Z,127.07
2018-12-06T09:47:30.399Z,121.67
2018-12-06T09:49:57.897Z,125.33
2018-12-06T09:52:26.081Z,128.47
2018-12-06T09:54:53.582Z,121.20
2018-12-06T09:57:21.096Z,120.73
2018-12-06T09:59:48.609Z,133.33
2018-12-06T10:02:16.126Z,132.73
2018-12-06T10:04:43.631Z,131.27
2018-12-06T10:07:11.121Z,131.20
2018-12-06T10:09:38.642Z,134.43
2018-12-06T10:14:38.145Z,132.17
2018-12-06T10:17:05.697Z,133.13
2018-12-06T10:19:33.232Z,124.03
2018-12-06T10:22:00.725Z,118.50
2018-12-06T10:24:28.235Z,122.50
2018-12-06T10:26:55.743Z,113.50
2018-12-06T10:29:23.319Z,104.90
2018-12-06T10:31:51.162Z,110.40
2018-12-06T10:34:19.482Z,104.20
2018-12-06T10:36:47.080Z,104.13
2018-12-06T10:39:15.088Z,99.53
2018-12-06T10:41:42.954Z,96.50
2018-12-06T10:44:14.402Z,94.73
2018-12-06T10:46:41.914Z,92.23
2018-12-06T10:49:09.414Z,90.43
2018-12-06T10:51:41.458Z,89.50
2018-12-06T10:54:09.516Z,93.90
2018-12-06T10:56:37.033Z,96.90
2018-12-06T10:59:04.540Z,104.23
2018-12-06T11:04:42.625Z,98.23
2018-12-06T11:07:10.154Z,83.23
2018-12-06T11:09:37.643Z,84.10
2018-12-06T11:12:05.150Z,85.70
2018-12-06T11:14:33.140Z,83.70
2018-12-06T11:17:00.643Z,82.63
2018-12-06T11:19:28.761Z,79.93
2018-12-06T11:21:56.267Z,67.40
2018-12-06T11:24:23.790Z,70.50
2018-12-06T11:26:51.959Z,66.73
2018-12-06T11:29:19.471Z,68.50
2018-12-06T11:31:47.547Z,65.47
2018-12-06T11:34:15.157Z,73.47
2018-12-06T11:36:42.688Z,81.53
2018-12-06T11:39:10.390Z,74.23
2018-12-06T11:41:43.015Z,68.97
2018-12-06T11:44:07.490Z,66.70
2018-12-06T11:46:35.018Z,61.00
2018-12-06T11:49:02.501Z,60.37
2018-12-06T11:51:30.014Z,58.80
2018-12-06T11:53:57.507Z,60.53
2018-12-06T11:56:25.020Z,78.93
2018-12-06T11:58:52.549Z,78.03
2018-12-06T12:01:20.082Z,65.73
2018-12-06T12:03:47.573Z,65.63
2018-12-06T12:06:15.066Z,53.37
2018-12-06T12:08:42.583Z,47.60
2018-12-06T12:11:10.090Z,46.00
2018-12-06T12:13:37.584Z,42.53
2018-12-06T12:16:05.094Z,43.10
2018-12-06T12:18:32.694Z,42.83
2018-12-06T12:21:00.200Z,38.77
2018-12-06T12:23:27.982Z,37.13
2018-12-06T12:25:55.470Z,37.53
2018-12-06T12:28:22.970Z,37.70
2018-12-06T12:30:51.246Z,38.33
2018-12-06T12:33:18.766Z,35.00
2018-12-06T12:35:46.291Z,34.03
2018-12-06T12:38:13.792Z,36.07
2018-12-06T12:40:41.294Z,33.07
2018-12-06T12:43:08.842Z,34.77
2018-12-06T12:45:36.318Z,29.53
2018-12-06T12:48:03.828Z,26.83
2018-12-06T12:50:31.342Z,30.07
2018-12-06T12:52:58.879Z,27.60
2018-12-06T12:55:26.393Z,25.37
2018-12-06T12:57:54.159Z,28.93
2018-12-06T13:00:21.656Z,31.00
2018-12-06T13:02:49.150Z,28.00
2018-12-06T13:05:16.654Z,25.07
2018-12-06T13:07:44.149Z,27.77
2018-12-06T13:10:11.665Z,26.07
2018-12-06T13:12:39.157Z,22.70
2018-12-06T13:15:06.666Z,23.87
2018-12-06T13:17:34.162Z,22.63
2018-12-06T13:20:01.673Z,22.07
2018-12-06T13:22:29.161Z,22.97
2018-12-06T13:24:56.685Z,23.60
2018-12-06T13:27:24.183Z,22.37
2018-12-06T13:29:51.762Z,21.93
2018-12-06T13:32:19.531Z,21.37
2018-12-06T13:34:47.469Z,21.57
2018-12-06T13:37:15.053Z,19.73
2018-12-06T13:39:42.618Z,18.87
2018-12-06T13:42:10.135Z,17.70
2018-12-06T13:44:37.677Z,17.43
2018-12-06T13:47:05.255Z,16.87
2018-12-06T13:49:32.746Z,14.83
2018-12-06T13:52:00.274Z,15.47
2018-12-06T13:54:27.766Z,19.00
2018-12-06T13:56:55.282Z,24.80
2018-12-06T13:59:22.786Z,22.30
2018-12-06T14:01:50.333Z,21.70
2018-12-06T14:04:18.202Z,20.73
2018-12-06T14:06:46.053Z,20.83
2018-12-06T14:09:13.567Z,19.53
2018-12-06T14:11:41.556Z,17.50
2018-12-06T14:14:09.429Z,17.20
2018-12-06T14:16:36.935Z,15.80
2018-12-06T14:19:04.457Z,15.00
2018-12-06T14:21:31.958Z,17.80
2018-12-06T14:24:00.300Z,18.03
2018-12-06T14:26:28.757Z,19.27
2018-12-06T14:28:56.303Z,17.17
2018-12-06T14:31:23.835Z,18.57
2018-12-06T14:33:51.541Z,16.57
2018-12-06T14:36:19.052Z,16.80
2018-12-06T14:38:46.554Z,14.93
2018-12-06T14:41:14.065Z,13.73
2018-12-06T14:43:41.664Z,14.03
2018-12-06T14:46:09.193Z,14.00
2018-12-06T14:48:36.790Z,14.47
2018-12-06T14:51:04.945Z,13.33
2018-12-06T14:53:32.757Z,19.80
2018-12-06T14:56:00.262Z,17.97
2018-12-06T14:58:27.936Z,14.97
2018-12-06T15:00:55.486Z,17.33
2018-12-06T15:03:23.190Z,19.37
2018-12-06T15:05:50.730Z,20.53
2018-12-06T15:08:18.433Z,23.90
2018-12-06T15:10:46.009Z,14.93
2018-12-06T15:13:13.533Z,16.70
2018-12-06T15:15:41.059Z,20.37
2018-12-06T15:18:08.558Z,28.70
2018-12-06T15:20:36.141Z,35.73
2018-12-06T15:23:03.765Z,33.10
2018-12-06T15:25:31.362Z,33.33
2018-12-06T15:27:59.462Z,34.70
2018-12-06T15:30:27.326Z,31.70
2018-12-06T15:32:54.829Z,30.90
2018-12-06T15:35:24.032Z,30.83
2018-12-06T15:37:51.691Z,27.90
2018-12-06T15:40:19.208Z,25.27
2018-12-06T15:42:46.705Z,24.83
2018-12-06T15:45:14.251Z,23.83
2018-12-06T15:47:42.696Z,22.07
2018-12-06T15:50:10.186Z,25.07
2018-12-06T15:52:37.788Z,24.23
2018-12-06T15:55:06.221Z,22.93
2018-12-06T15:57:33.735Z,24.57
2018-12-06T16:00:01.321Z,30.17
2018-12-06T16:02:28.850Z,31.90
2018-12-06T16:04:56.361Z,74.20
2018-12-06T16:07:23.909Z,89.03
2018-12-06T16:09:51.493Z,89.27
2018-12-06T16:12:18.996Z,76.07
2018-12-06T16:14:46.581Z,66.53
2018-12-06T16:17:14.083Z,59.27
2018-12-06T16:19:41.617Z,56.27
2018-12-06T16:22:09.909Z,57.73
2018-12-06T16:24:37.431Z,55.10
2018-12-06T16:27:04.909Z,61.17
2018-12-06T16:29:32.413Z,62.27
2018-12-06T16:31:59.931Z,60.37
2018-12-06T16:34:27.442Z,58.97
2018-12-06T16:36:54.960Z,57.37
2018-12-06T16:39:22.499Z,106.07
2018-12-06T16:41:50.013Z,118.70
2018-12-06T16:44:17.542Z,171.70
2018-12-06T16:46:45.057Z,153.40
2018-12-06T16:49:12.616Z,138.53
2018-12-06T16:51:40.123Z,134.77
2018-12-06T16:54:07.621Z,127.00
2018-12-06T16:56:35.137Z,120.67
2018-12-06T16:59:02.656Z,112.07
2018-12-06T17:01:30.166Z,109.60
2018-12-06T17:03:57.666Z,101.23
2018-12-06T17:06:25.473Z,96.80
2018-12-06T17:08:53.006Z,91.73
2018-12-06T17:11:21.998Z,93.70
2018-12-06T17:13:49.582Z,90.83
2018-12-06T17:16:17.086Z,89.93
2018-12-06T17:18:44.569Z,86.53
2018-12-06T17:21:12.078Z,86.37
2018-12-06T17:23:39.571Z,79.63
2018-12-06T17:26:07.082Z,83.97
2018-12-06T17:28:34.605Z,78.07
2018-12-06T17:31:02.112Z,73.80
2018-12-06T17:33:29.652Z,106.83
2018-12-06T17:35:57.161Z,127.37
2018-12-06T17:38:25.166Z,115.57
2018-12-06T17:40:52.809Z,101.50
2018-12-06T17:43:20.313Z,103.87
2018-12-06T17:45:48.254Z,93.07
2018-12-06T17:48:15.884Z,93.97
2018-12-06T17:50:43.887Z,95.63
2018-12-06T17:53:11.415Z,90.80
2018-12-06T17:55:43.205Z,89.50
2018-12-06T17:58:10.784Z,88.23
2018-12-06T18:00:38.733Z,85.07
2018-12-06T18:03:06.259Z,80.13
2018-12-06T18:05:33.778Z,118.27
2018-12-06T18:08:01.301Z,147.57
2018-12-06T18:10:29.181Z,120.47
2018-12-06T18:12:56.705Z,114.03
2018-12-06T18:15:25.138Z,109.93
2018-12-06T18:17:53.022Z,114.33
2018-12-06T18:20:20.533Z,105.70
2018-12-06T18:22:48.044Z,106.10
2018-12-06T18:25:15.560Z,100.20
2018-12-06T18:27:43.163Z,106.90
2018-12-06T18:30:10.673Z,102.60
2018-12-06T18:32:38.206Z,103.50
2018-12-06T18:35:06.506Z,89.67
2018-12-06T18:37:34.017Z,89.90
2018-12-06T18:40:01.549Z,78.73
2018-12-06T18:42:29.047Z,85.40
2018-12-06T18:44:56.574Z,88.63
2018-12-06T18:47:24.068Z,90.53
2018-12-06T18:49:51.622Z,84.13
2018-12-06T18:52:19.133Z,74.93
2018-12-06T18:54:47.321Z,76.10
2018-12-06T18:57:14.825Z,79.97
2018-12-06T18:59:42.357Z,71.67
2018-12-06T19:02:09.846Z,70.40
2018-12-06T19:04:37.343Z,65.23
2018-12-06T19:07:04.861Z,76.30
2018-12-06T19:09:32.761Z,70.97
2018-12-06T19:12:00.302Z,68.40
2018-12-06T19:14:28.189Z,67.87
2018-12-06T19:16:56.668Z,64.67
2018-12-06T19:19:24.649Z,61.27
2018-12-06T19:21:52.506Z,62.60
2018-12-06T19:24:20.055Z,84.73
2018-12-06T19:26:47.547Z,69.33
2018-12-06T19:29:15.491Z,65.20
2018-12-06T19:31:43.163Z,67.67
2018-12-06T19:34:11.125Z,65.87
2018-12-06T19:36:38.645Z,65.77
2018-12-06T19:39:08.700Z,61.87
2018-12-06T19:41:36.567Z,60.77
2018-12-06T19:44:04.105Z,59.77
2018-12-06T19:46:31.654Z,61.17
2018-12-06T19:48:59.177Z,56.97
2018-12-06T19:51:27.044Z,56.83
2018-12-06T19:53:54.981Z,56.87
2018-12-06T19:56:22.851Z,58.43
2018-12-06T19:58:50.386Z,64.53
2018-12-06T20:01:18.376Z,62.20
2018-12-06T20:03:46.345Z,66.60
2018-12-06T20:06:13.882Z,62.80
2018-12-06T20:08:41.875Z,61.17
2018-12-06T20:11:09.859Z,59.50
2018-12-06T20:13:37.917Z,54.23
2018-12-06T20:16:05.458Z,55.40
2018-12-06T20:18:34.059Z,51.63
2018-12-06T20:21:01.585Z,47.47
2018-12-06T20:23:29.085Z,46.33
2018-12-06T20:25:56.943Z,53.23
2018-12-06T20:28:26.609Z,54.17
2018-12-06T20:30:54.418Z,50.40
2018-12-06T20:33:22.386Z,51.47
2018-12-06T20:35:49.944Z,54.20
2018-12-06T20:38:17.459Z,48.50
2018-12-06T20:40:44.964Z,45.33
2018-12-06T20:43:12.472Z,46.17
2018-12-06T20:45:40.067Z,44.53
2018-12-06T20:48:07.557Z,44.97
2018-12-06T20:50:36.036Z,46.23
2018-12-06T20:53:03.654Z,48.47
2018-12-06T20:55:31.846Z,48.03
2018-12-06T20:57:59.360Z,45.20
2018-12-06T21:00:26.853Z,44.53
2018-12-06T21:02:54.395Z,45.00
2018-12-06T21:05:21.974Z,44.77
2018-12-06T21:07:50.029Z,42.43
2018-12-06T21:10:17.531Z,39.07
2018-12-06T21:12:45.013Z,39.53
2018-12-06T21:15:12.537Z,43.23
2018-12-06T21:17:40.026Z,41.33
2018-12-06T21:20:07.535Z,39.17
2018-12-06T21:22:35.031Z,40.23
2018-12-06T21:25:02.562Z,37.67
2018-12-06T21:27:30.129Z,34.73
2018-12-06T21:29:57.619Z,36.63
2018-12-06T21:32:25.144Z,35.63
2018-12-06T21:34:52.640Z,31.70
2018-12-06T21:37:20.126Z,28.23
2018-12-06T21:39:47.632Z,26.40
2018-12-06T21:42:15.125Z,24.80
2018-12-06T21:44:42.637Z,25.43
2018-12-06T21:47:12.107Z,33.07
2018-12-06T21:49:40.170Z,37.93
2018-12-06T21:52:08.255Z,63.30
2018-12-06T21:54:35.737Z,65.17
2018-12-06T21:57:03.240Z,61.10
2018-12-06T21:59:30.739Z,73.03
2018-12-06T22:04:57.532Z,103.23
2018-12-06T22:07:25.054Z,114.20
2018-12-06T22:09:52.936Z,143.53
2018-12-06T22:12:20.790Z,149.73
2018-12-06T22:14:48.291Z,142.87
2018-12-06T22:17:15.783Z,144.17
2018-12-06T22:19:43.474Z,139.63
2018-12-06T22:22:10.976Z,134.23
2018-12-06T22:24:38.482Z,144.17
2018-12-06T22:27:05.990Z,166.07
2018-12-06T22:29:33.506Z,160.70
2018-12-06T22:32:01.002Z,161.50
2018-12-06T22:34:28.514Z,159.33
2018-12-06T22:36:56.006Z,160.10
2018-12-06T22:39:23.518Z,159.33
2018-12-06T22:41:51.019Z,153.07
2018-12-06T22:44:18.993Z,152.30
2018-12-06T22:46:46.491Z,156.57
2018-12-06T22:49:14.011Z,152.13
2018-12-06T22:51:41.501Z,149.80
2018-12-06T22:54:09.009Z,150.83
2018-12-06T22:56:36.518Z,145.80
2018-12-06T22:59:04.010Z,143.47
2018-12-06T23:01:37.225Z,143.40
2018-12-06T23:04:04.722Z,142.23
2018-12-06T23:06:32.226Z,144.27
2018-12-06T23:08:59.741Z,137.93
2018-12-06T23:11:27.258Z,132.73
2018-12-06T23:13:54.758Z,127.80
2018-12-06T23:16:22.281Z,164.40
2018-12-06T23:18:49.823Z,166.27
2018-12-06T23:21:17.614Z,178.60
2018-12-06T23:23:45.101Z,173.40
2018-12-06T23:26:12.602Z,163.93
2018-12-06T23:28:40.109Z,159.77
2018-12-06T23:31:07.601Z,158.00
2018-12-06T23:33:35.141Z,160.47
2018-12-06T23:36:02.644Z,158.10
2018-12-06T23:38:30.144Z,154.43
2018-12-06T23:40:57.642Z,156.17
2018-12-06T23:43:25.150Z,150.37
2018-12-06T23:45:52.666Z,153.87
2018-12-06T23:48:20.174Z,146.13
2018-12-06T23:50:47.669Z,146.77
2018-12-06T23:53:15.184Z,153.03
2018-12-06T23:55:42.686Z,143.43
2018-12-06T23:58:10.180Z,142.60
